sensor_id;sensor_type;location;lat;lon;timestamp;pressure;altitude;pressure_sealevel;temperature;humidity
75146;BME280;63641;46.526;24.612;2022-10-16T00:00:32;97967.13;;;6.20;73.46
75146;BME280;63641;46.526;24.612;2022-10-16T00:02:59;97966.78;;;6.17;73.32
75146;BME280;63641;46.526;24.612;2022-10-16T00:05:25;97968.88;;;6.15;73.39
75146;BME280;63641;46.526;24.612;2022-10-16T00:07:52;97969.38;;;6.12;73.60
75146;BME280;63641;46.526;24.612;2022-10-16T00:10:19;97976.38;;;6.13;73.51
75146;BME280;63641;46.526;24.612;2022-10-16T00:12:46;97974.97;;;6.10;73.41
75146;BME280;63641;46.526;24.612;2022-10-16T00:15:13;97989.22;;;6.11;73.85
75146;BME280;63641;46.526;24.612;2022-10-16T00:17:40;97982.13;;;6.04;73.81
75146;BME280;63641;46.526;24.612;2022-10-16T00:20:07;97982.34;;;6.03;73.58
75146;BME280;63641;46.526;24.612;2022-10-16T00:22:34;97983.66;;;6.00;73.71
75146;BME280;63641;46.526;24.612;2022-10-16T00:25:01;97983.31;;;5.97;73.68
75146;BME280;63641;46.526;24.612;2022-10-16T00:27:27;97982.47;;;5.96;73.93
75146;BME280;63641;46.526;24.612;2022-10-16T00:29:54;97986.81;;;5.97;73.67
75146;BME280;63641;46.526;24.612;2022-10-16T00:32:21;97986.69;;;5.92;73.84
75146;BME280;63641;46.526;24.612;2022-10-16T00:34:48;97992.06;;;5.92;74.00
75146;BME280;63641;46.526;24.612;2022-10-16T00:37:15;97994.94;;;5.91;74.18
75146;BME280;63641;46.526;24.612;2022-10-16T00:39:41;98003.81;;;5.91;74.01
75146;BME280;63641;46.526;24.612;2022-10-16T00:42:15;97997.88;;;5.89;74.08
75146;BME280;63641;46.526;24.612;2022-10-16T00:44:53;97998.91;;;5.88;74.08
75146;BME280;63641;46.526;24.612;2022-10-16T00:49:58;97996.13;;;5.83;74.29
75146;BME280;63641;46.526;24.612;2022-10-16T00:52:25;97991.81;;;5.82;74.17
75146;BME280;63641;46.526;24.612;2022-10-16T00:54:53;97990.16;;;5.81;73.92
75146;BME280;63641;46.526;24.612;2022-10-16T00:57:21;97984.44;;;5.77;74.33
75146;BME280;63641;46.526;24.612;2022-10-16T00:59:49;97988.19;;;5.76;74.20
75146;BME280;63641;46.526;24.612;2022-10-16T01:02:17;97991.13;;;5.75;74.00
75146;BME280;63641;46.526;24.612;2022-10-16T01:04:50;97988.88;;;5.72;74.15
75146;BME280;63641;46.526;24.612;2022-10-16T01:18:50;97979.88;;;5.54;74.38
75146;BME280;63641;46.526;24.612;2022-10-16T01:21:28;98004.16;;;5.60;74.30
75146;BME280;63641;46.526;24.612;2022-10-16T01:29:22;97994.59;;;5.52;74.52
75146;BME280;63641;46.526;24.612;2022-10-16T01:31:58;97993.41;;;5.48;74.46
75146;BME280;63641;46.526;24.612;2022-10-16T01:34:33;97989.91;;;5.47;74.74
75146;BME280;63641;46.526;24.612;2022-10-16T01:37:11;97994.47;;;5.47;74.58
75146;BME280;63641;46.526;24.612;2022-10-16T01:39:39;97999.03;;;5.46;74.78
75146;BME280;63641;46.526;24.612;2022-10-16T01:44:38;97997.41;;;5.45;74.33
75146;BME280;63641;46.526;24.612;2022-10-16T01:47:08;98000.09;;;5.45;74.62
75146;BME280;63641;46.526;24.612;2022-10-16T01:49:38;98006.28;;;5.46;74.96
75146;BME280;63641;46.526;24.612;2022-10-16T01:52:10;98016.75;;;5.47;74.41
75146;BME280;63641;46.526;24.612;2022-10-16T01:54:41;98009.75;;;5.46;74.74
75146;BME280;63641;46.526;24.612;2022-10-16T01:57:10;98008.13;;;5.45;74.76
75146;BME280;63641;46.526;24.612;2022-10-16T01:59:42;98004.03;;;5.43;74.82
75146;BME280;63641;46.526;24.612;2022-10-16T02:02:12;98005.91;;;5.42;74.76
75146;BME280;63641;46.526;24.612;2022-10-16T02:04:44;98006.94;;;5.41;74.68
75146;BME280;63641;46.526;24.612;2022-10-16T02:07:13;98011.50;;;5.41;75.04
75146;BME280;63641;46.526;24.612;2022-10-16T02:09:41;98004.13;;;5.36;74.65
75146;BME280;63641;46.526;24.612;2022-10-16T02:12:31;98015.47;;;5.38;74.72
75146;BME280;63641;46.526;24.612;2022-10-16T02:15:00;98013.00;;;5.37;74.79
75146;BME280;63641;46.526;24.612;2022-10-16T02:17:27;98019.44;;;5.36;74.72
75146;BME280;63641;46.526;24.612;2022-10-16T02:19:54;98018.25;;;5.31;74.63
75146;BME280;63641;46.526;24.612;2022-10-16T02:22:34;98022.81;;;5.31;74.95
75146;BME280;63641;46.526;24.612;2022-10-16T02:25:07;98020.22;;;5.24;74.88
75146;BME280;63641;46.526;24.612;2022-10-16T02:30:27;98030.94;;;5.24;74.63
75146;BME280;63641;46.526;24.612;2022-10-16T02:32:57;98037.59;;;5.22;74.64
75146;BME280;63641;46.526;24.612;2022-10-16T02:35:26;98038.88;;;5.19;74.71
75146;BME280;63641;46.526;24.612;2022-10-16T02:37:55;98037.59;;;5.22;74.55
75146;BME280;63641;46.526;24.612;2022-10-16T02:40:23;98044.00;;;5.21;74.49
75146;BME280;63641;46.526;24.612;2022-10-16T02:42:52;98036.19;;;5.19;74.79
75146;BME280;63641;46.526;24.612;2022-10-16T02:45:20;98042.38;;;5.20;74.67
75146;BME280;63641;46.526;24.612;2022-10-16T02:47:47;98044.47;;;5.18;75.03
75146;BME280;63641;46.526;24.612;2022-10-16T02:50:14;98046.09;;;5.19;74.91
75146;BME280;63641;46.526;24.612;2022-10-16T02:52:40;98049.38;;;5.21;74.87
75146;BME280;63641;46.526;24.612;2022-10-16T02:55:07;98047.75;;;5.20;74.95
75146;BME280;63641;46.526;24.612;2022-10-16T02:57:34;98054.13;;;5.19;74.76
75146;BME280;63641;46.526;24.612;2022-10-16T03:00:06;98057.31;;;5.16;75.08
75146;BME280;63641;46.526;24.612;2022-10-16T03:02:34;98055.66;;;5.15;74.87
75146;BME280;63641;46.526;24.612;2022-10-16T03:05:00;98064.28;;;5.17;75.06
75146;BME280;63641;46.526;24.612;2022-10-16T03:07:27;98059.38;;;5.14;75.31
75146;BME280;63641;46.526;24.612;2022-10-16T03:09:54;98059.38;;;5.14;75.33
75146;BME280;63641;46.526;24.612;2022-10-16T03:12:21;98079.56;;;5.16;75.02
75146;BME280;63641;46.526;24.612;2022-10-16T03:14:51;98063.69;;;5.15;75.11
75146;BME280;63641;46.526;24.612;2022-10-16T03:17:18;98068.47;;;5.13;75.08
75146;BME280;63641;46.526;24.612;2022-10-16T03:19:44;98078.16;;;5.14;75.00
75146;BME280;63641;46.526;24.612;2022-10-16T03:22:11;98078.41;;;5.12;75.07
75146;BME280;63641;46.526;24.612;2022-10-16T03:24:38;98082.91;;;5.12;75.08
75146;BME280;63641;46.526;24.612;2022-10-16T03:27:04;98082.91;;;5.12;75.06
75146;BME280;63641;46.526;24.612;2022-10-16T03:29:31;98080.25;;;5.12;75.23
75146;BME280;63641;46.526;24.612;2022-10-16T03:31:59;98085.03;;;5.09;74.91
75146;BME280;63641;46.526;24.612;2022-10-16T03:34:26;98089.78;;;5.07;75.01
75146;BME280;63641;46.526;24.612;2022-10-16T03:36:53;98087.91;;;5.08;75.03
75146;BME280;63641;46.526;24.612;2022-10-16T03:39:19;98095.16;;;5.07;74.86
75146;BME280;63641;46.526;24.612;2022-10-16T03:41:46;98086.53;;;5.05;74.95
75146;BME280;63641;46.526;24.612;2022-10-16T03:44:13;98086.16;;;5.02;74.95
75146;BME280;63641;46.526;24.612;2022-10-16T03:46:40;98093.41;;;5.01;75.12
75146;BME280;63641;46.526;24.612;2022-10-16T03:49:07;98087.66;;;4.98;75.09
75146;BME280;63641;46.526;24.612;2022-10-16T03:51:35;98089.06;;;5.00;74.98
75146;BME280;63641;46.526;24.612;2022-10-16T03:54:02;98089.91;;;5.01;75.17
75146;BME280;63641;46.526;24.612;2022-10-16T03:56:29;98089.91;;;5.01;75.04
75146;BME280;63641;46.526;24.612;2022-10-16T03:58:55;98095.09;;;4.96;75.23
75146;BME280;63641;46.526;24.612;2022-10-16T04:01:22;98089.97;;;4.94;75.57
75146;BME280;63641;46.526;24.612;2022-10-16T04:03:49;98093.69;;;4.93;75.24
75146;BME280;63641;46.526;24.612;2022-10-16T04:06:15;98098.84;;;4.95;75.36
75146;BME280;63641;46.526;24.612;2022-10-16T04:08:43;98098.03;;;4.94;75.22
75146;BME280;63641;46.526;24.612;2022-10-16T04:11:09;98105.03;;;4.95;75.44
75146;BME280;63641;46.526;24.612;2022-10-16T04:13:36;98110.38;;;4.95;75.36
75146;BME280;63641;46.526;24.612;2022-10-16T04:16:03;98114.13;;;4.94;75.14
75146;BME280;63641;46.526;24.612;2022-10-16T04:18:30;98108.16;;;4.92;75.68
75146;BME280;63641;46.526;24.612;2022-10-16T04:21:02;98112.47;;;4.93;75.44
75146;BME280;63641;46.526;24.612;2022-10-16T04:23:29;98117.81;;;4.93;75.42
75146;BME280;63641;46.526;24.612;2022-10-16T04:25:55;98118.88;;;4.92;75.43
75146;BME280;63641;46.526;24.612;2022-10-16T04:28:24;98119.94;;;4.91;75.29
75146;BME280;63641;46.526;24.612;2022-10-16T04:30:51;98120.97;;;4.90;75.45
75146;BME280;63641;46.526;24.612;2022-10-16T04:33:18;98124.47;;;4.91;75.44
75146;BME280;63641;46.526;24.612;2022-10-16T04:35:44;98127.16;;;4.91;75.59
75146;BME280;63641;46.526;24.612;2022-10-16T04:38:11;98126.56;;;4.89;75.51
75146;BME280;63641;46.526;24.612;2022-10-16T04:40:38;98122.59;;;4.91;75.50
75146;BME280;63641;46.526;24.612;2022-10-16T04:43:05;98146.75;;;4.91;75.51
75146;BME280;63641;46.526;24.612;2022-10-16T04:45:32;98134.59;;;4.89;75.44
75146;BME280;63641;46.526;24.612;2022-10-16T04:47:59;98141.81;;;4.88;75.40
75146;BME280;63641;46.526;24.612;2022-10-16T04:50:26;98131.91;;;4.89;75.36
75146;BME280;63641;46.526;24.612;2022-10-16T04:52:53;98133.78;;;4.88;75.42
75146;BME280;63641;46.526;24.612;2022-10-16T04:55:20;98145.31;;;4.89;75.48
75146;BME280;63641;46.526;24.612;2022-10-16T04:57:46;98151.75;;;4.88;75.29
75146;BME280;63641;46.526;24.612;2022-10-16T05:00:14;98161.66;;;4.87;75.62
75146;BME280;63641;46.526;24.612;2022-10-16T05:02:40;98158.97;;;4.87;75.41
75146;BME280;63641;46.526;24.612;2022-10-16T05:05:07;98157.91;;;4.88;75.51
75146;BME280;63641;46.526;24.612;2022-10-16T05:07:34;98157.91;;;4.88;75.48
75146;BME280;63641;46.526;24.612;2022-10-16T05:10:01;98146.00;;;4.84;75.29
75146;BME280;63641;46.526;24.612;2022-10-16T05:12:28;98154.84;;;4.84;75.32
75146;BME280;63641;46.526;24.612;2022-10-16T05:14:58;98165.81;;;4.83;75.53
75146;BME280;63641;46.526;24.612;2022-10-16T05:17:25;98161.94;;;4.79;75.89
75146;BME280;63641;46.526;24.612;2022-10-16T05:19:53;98166.03;;;4.81;75.64
75146;BME280;63641;46.526;24.612;2022-10-16T05:22:20;98171.38;;;4.81;75.81
75146;BME280;63641;46.526;24.612;2022-10-16T05:24:46;98177.38;;;4.83;75.80
75146;BME280;63641;46.526;24.612;2022-10-16T05:27:13;98173.88;;;4.83;75.70
75146;BME280;63641;46.526;24.612;2022-10-16T05:29:46;98169.09;;;4.85;75.71
75146;BME280;63641;46.526;24.612;2022-10-16T05:32:14;98176.09;;;4.86;75.68
75146;BME280;63641;46.526;24.612;2022-10-16T05:34:41;98174.81;;;4.89;75.63
75146;BME280;63641;46.526;24.612;2022-10-16T05:37:08;98179.59;;;4.87;75.56
75146;BME280;63641;46.526;24.612;2022-10-16T05:39:35;98196.66;;;4.92;75.72
75146;BME280;63641;46.526;24.612;2022-10-16T05:42:04;98194.19;;;4.91;75.71
75146;BME280;63641;46.526;24.612;2022-10-16T05:44:31;98192.91;;;4.93;75.73
75146;BME280;63641;46.526;24.612;2022-10-16T05:47:02;98196.66;;;4.92;75.88
75146;BME280;63641;46.526;24.612;2022-10-16T05:49:29;98197.84;;;4.96;75.86
75146;BME280;63641;46.526;24.612;2022-10-16T05:51:56;98191.22;;;4.99;75.91
75146;BME280;63641;46.526;24.612;2022-10-16T05:54:22;98196.94;;;5.02;76.00
75146;BME280;63641;46.526;24.612;2022-10-16T05:56:49;98195.91;;;5.03;76.10
75146;BME280;63641;46.526;24.612;2022-10-16T05:59:16;98199.78;;;5.07;76.20
75146;BME280;63641;46.526;24.612;2022-10-16T06:01:42;98211.69;;;5.12;76.31
75146;BME280;63641;46.526;24.612;2022-10-16T06:04:09;98211.25;;;5.15;76.26
75146;BME280;63641;46.526;24.612;2022-10-16T06:06:41;98202.16;;;5.16;76.41
75146;BME280;63641;46.526;24.612;2022-10-16T06:09:09;98206.25;;;5.18;76.22
75146;BME280;63641;46.526;24.612;2022-10-16T06:11:36;98215.03;;;5.25;76.61
75146;BME280;63641;46.526;24.612;2022-10-16T06:14:03;98209.22;;;5.28;76.58
75146;BME280;63641;46.526;24.612;2022-10-16T06:16:35;98200.72;;;5.31;76.56
75146;BME280;63641;46.526;24.612;2022-10-16T06:19:03;98202.53;;;5.38;76.76
75146;BME280;63641;46.526;24.612;2022-10-16T06:21:32;98197.28;;;5.43;76.96
75146;BME280;63641;46.526;24.612;2022-10-16T06:23:59;98203.59;;;5.48;77.29
75146;BME280;63641;46.526;24.612;2022-10-16T06:26:28;98205.97;;;5.56;77.53
75146;BME280;63641;46.526;24.612;2022-10-16T06:28:56;98205.88;;;5.63;77.37
75146;BME280;63641;46.526;24.612;2022-10-16T06:31:24;98201.47;;;5.69;77.48
75146;BME280;63641;46.526;24.612;2022-10-16T06:33:54;98209.44;;;5.75;77.85
75146;BME280;63641;46.526;24.612;2022-10-16T06:36:22;98210.38;;;5.81;77.63
75146;BME280;63641;46.526;24.612;2022-10-16T06:38:49;98212.16;;;5.87;78.12
75146;BME280;63641;46.526;24.612;2022-10-16T06:41:18;98218.84;;;5.96;78.14
75146;BME280;63641;46.526;24.612;2022-10-16T06:43:46;98226.00;;;6.02;78.39
75146;BME280;63641;46.526;24.612;2022-10-16T06:46:16;98226.72;;;6.10;78.51
75146;BME280;63641;46.526;24.612;2022-10-16T06:48:43;98227.44;;;6.17;78.56
75146;BME280;63641;46.526;24.612;2022-10-16T06:51:12;98235.16;;;6.25;78.67
75146;BME280;63641;46.526;24.612;2022-10-16T06:53:42;98236.94;;;6.31;78.83
75146;BME280;63641;46.526;24.612;2022-10-16T06:56:27;98242.78;;;6.40;78.63
75146;BME280;63641;46.526;24.612;2022-10-16T06:58:56;98240.59;;;6.48;78.95
75146;BME280;63641;46.526;24.612;2022-10-16T07:01:24;98236.50;;;6.58;78.95
75146;BME280;63641;46.526;24.612;2022-10-16T07:03:51;98231.56;;;6.66;79.07
75146;BME280;63641;46.526;24.612;2022-10-16T07:06:20;98233.69;;;6.76;79.13
75146;BME280;63641;46.526;24.612;2022-10-16T07:08:47;98244.44;;;6.88;79.24
75146;BME280;63641;46.526;24.612;2022-10-16T07:11:17;98239.56;;;6.96;79.21
75146;BME280;63641;46.526;24.612;2022-10-16T07:13:44;98238.13;;;7.06;79.42
75146;BME280;63641;46.526;24.612;2022-10-16T07:16:21;98246.66;;;7.14;79.49
75146;BME280;63641;46.526;24.612;2022-10-16T07:18:56;98244.16;;;7.24;79.68
75146;BME280;63641;46.526;24.612;2022-10-16T07:21:28;98247.91;;;7.35;79.92
75146;BME280;63641;46.526;24.612;2022-10-16T07:23:59;98253.84;;;7.49;79.66
75146;BME280;63641;46.526;24.612;2022-10-16T07:26:29;98252.16;;;7.60;79.81
75146;BME280;63641;46.526;24.612;2022-10-16T07:28:56;98258.31;;;7.72;79.72
75146;BME280;63641;46.526;24.612;2022-10-16T07:31:23;98251.25;;;7.83;79.89
75146;BME280;63641;46.526;24.612;2022-10-16T07:33:51;98248.75;;;7.93;79.82
75146;BME280;63641;46.526;24.612;2022-10-16T07:36:19;98248.22;;;8.08;80.10
75146;BME280;63641;46.526;24.612;2022-10-16T07:38:46;98241.69;;;8.20;80.12
75146;BME280;63641;46.526;24.612;2022-10-16T07:41:15;98230.34;;;8.35;80.06
75146;BME280;63641;46.526;24.612;2022-10-16T07:43:50;98235.47;;;8.49;79.69
75146;BME280;63641;46.526;24.612;2022-10-16T07:46:18;98240.03;;;8.65;79.69
75146;BME280;63641;46.526;24.612;2022-10-16T07:48:45;98229.66;;;8.74;79.59
75146;BME280;63641;46.526;24.612;2022-10-16T07:51:15;98237.22;;;8.93;79.57
75146;BME280;63641;46.526;24.612;2022-10-16T07:53:42;98233.91;;;9.08;79.63
75146;BME280;63641;46.526;24.612;2022-10-16T07:56:10;98234.94;;;9.24;79.55
75146;BME280;63641;46.526;24.612;2022-10-16T07:58:37;98240.56;;;9.39;79.32
75146;BME280;63641;46.526;24.612;2022-10-16T08:01:06;98243.44;;;9.55;79.24
75146;BME280;63641;46.526;24.612;2022-10-16T08:03:34;98240.03;;;9.64;79.13
75146;BME280;63641;46.526;24.612;2022-10-16T08:06:01;98242.38;;;9.83;78.86
75146;BME280;63641;46.526;24.612;2022-10-16T08:08:29;98245.50;;;9.97;78.50
75146;BME280;63641;46.526;24.612;2022-10-16T08:10:56;98245.16;;;10.15;78.23
75146;BME280;63641;46.526;24.612;2022-10-16T08:13:25;98246.72;;;10.33;77.83
75146;BME280;63641;46.526;24.612;2022-10-16T08:15:53;98245.53;;;10.51;77.27
75146;BME280;63641;46.526;24.612;2022-10-16T08:18:21;98240.78;;;10.68;77.16
75146;BME280;63641;46.526;24.612;2022-10-16T08:20:55;98247.41;;;10.87;76.57
75146;BME280;63641;46.526;24.612;2022-10-16T08:23:27;98241.59;;;11.06;76.02
75146;BME280;63641;46.526;24.612;2022-10-16T08:25:54;98244.38;;;11.26;75.59
75146;BME280;63641;46.526;24.612;2022-10-16T08:28:22;98247.50;;;11.45;75.07
75146;BME280;63641;46.526;24.612;2022-10-16T08:30:49;98249.19;;;11.67;74.26
75146;BME280;63641;46.526;24.612;2022-10-16T08:33:16;98247.91;;;11.84;73.42
75146;BME280;63641;46.526;24.612;2022-10-16T08:35:42;98248.50;;;12.02;72.73
75146;BME280;63641;46.526;24.612;2022-10-16T08:38:09;98235.53;;;12.19;72.32
75146;BME280;63641;46.526;24.612;2022-10-16T08:40:37;98238.25;;;12.40;71.48
75146;BME280;63641;46.526;24.612;2022-10-16T08:43:31;98241.00;;;12.60;71.00
75146;BME280;63641;46.526;24.612;2022-10-16T08:48:54;98247.16;;;13.06;69.40
75146;BME280;63641;46.526;24.612;2022-10-16T08:51:29;98247.72;;;13.24;68.53
75146;BME280;63641;46.526;24.612;2022-10-16T08:53:58;98243.59;;;13.42;67.95
75146;BME280;63641;46.526;24.612;2022-10-16T08:56:28;98250.31;;;13.60;67.71
75146;BME280;63641;46.526;24.612;2022-10-16T08:58:57;98247.25;;;13.76;67.22
75146;BME280;63641;46.526;24.612;2022-10-16T09:01:41;98247.19;;;13.92;66.72
75146;BME280;63641;46.526;24.612;2022-10-16T09:07:15;98241.50;;;14.27;65.14
75146;BME280;63641;46.526;24.612;2022-10-16T09:10:20;98252.28;;;14.48;65.14
75146;BME280;63641;46.526;24.612;2022-10-16T09:13:03;98247.25;;;14.65;64.58
75146;BME280;63641;46.526;24.612;2022-10-16T09:20:53;98261.22;;;15.17;62.38
75146;BME280;63641;46.526;24.612;2022-10-16T09:23:25;98259.75;;;15.30;62.08
75146;BME280;63641;46.526;24.612;2022-10-16T09:25:54;98255.22;;;15.44;61.09
75146;BME280;63641;46.526;24.612;2022-10-16T09:28:22;98259.72;;;15.54;61.38
75146;BME280;63641;46.526;24.612;2022-10-16T09:30:49;98261.31;;;15.60;60.57
75146;BME280;63641;46.526;24.612;2022-10-16T09:33:19;98253.84;;;15.70;60.14
75146;BME280;63641;46.526;24.612;2022-10-16T09:35:52;98252.16;;;15.75;59.79
75146;BME280;63641;46.526;24.612;2022-10-16T09:38:26;98256.72;;;15.79;59.56
75146;BME280;63641;46.526;24.612;2022-10-16T09:40:53;98256.38;;;15.86;59.15
75146;BME280;63641;46.526;24.612;2022-10-16T09:43:34;98255.34;;;16.01;58.96
75146;BME280;63641;46.526;24.612;2022-10-16T09:46:03;98259.53;;;16.17;57.98
75146;BME280;63641;46.526;24.612;2022-10-16T09:48:43;98251.25;;;16.22;57.19
75146;BME280;63641;46.526;24.612;2022-10-16T09:51:23;98245.19;;;16.25;57.10
75146;BME280;63641;46.526;24.612;2022-10-16T09:53:56;98245.91;;;16.31;56.71
75146;BME280;63641;46.526;24.612;2022-10-16T09:56:31;98247.69;;;16.40;56.12
75146;BME280;63641;46.526;24.612;2022-10-16T09:59:16;98244.50;;;16.52;56.20
75146;BME280;63641;46.526;24.612;2022-10-16T10:01:47;98250.03;;;16.66;55.95
75146;BME280;63641;46.526;24.612;2022-10-16T10:04:14;98245.84;;;16.74;55.49
75146;BME280;63641;46.526;24.612;2022-10-16T10:06:46;98247.00;;;16.86;55.47
75146;BME280;63641;46.526;24.612;2022-10-16T10:09:21;98246.59;;;16.93;55.04
75146;BME280;63641;46.526;24.612;2022-10-16T10:12:02;98244.81;;;17.02;54.82
75146;BME280;63641;46.526;24.612;2022-10-16T10:14:44;98245.22;;;17.09;54.40
75146;BME280;63641;46.526;24.612;2022-10-16T10:17:21;98234.78;;;17.11;54.00
75146;BME280;63641;46.526;24.612;2022-10-16T10:19:52;98238.53;;;17.15;53.97
75146;BME280;63641;46.526;24.612;2022-10-16T10:35:27;98224.91;;;17.57;53.67
75146;BME280;63641;46.526;24.612;2022-10-16T10:38:05;98217.88;;;17.65;53.35
75146;BME280;63641;46.526;24.612;2022-10-16T10:46:32;98217.88;;;17.78;52.80
75146;BME280;63641;46.526;24.612;2022-10-16T10:49:15;98200.16;;;17.76;52.53
75146;BME280;63641;46.526;24.612;2022-10-16T10:52:08;98212.50;;;17.87;52.16
75146;BME280;63641;46.526;24.612;2022-10-16T11:03:31;98200.38;;;18.16;51.73
75146;BME280;63641;46.526;24.612;2022-10-16T11:06:05;98198.50;;;18.25;51.35
75146;BME280;63641;46.526;24.612;2022-10-16T11:08:46;98196.97;;;18.32;51.23
75146;BME280;63641;46.526;24.612;2022-10-16T11:11:33;98198.75;;;18.37;51.23
75146;BME280;63641;46.526;24.612;2022-10-16T11:16:39;98192.94;;;18.52;50.78
75146;BME280;63641;46.526;24.612;2022-10-16T11:22:32;98194.59;;;18.62;50.29
75146;BME280;63641;46.526;24.612;2022-10-16T11:25:17;98198.50;;;18.70;50.05
75146;BME280;63641;46.526;24.612;2022-10-16T11:30:24;98190.38;;;18.78;49.94
75146;BME280;63641;46.526;24.612;2022-10-16T11:38:34;98191.50;;;18.77;49.53
75146;BME280;63641;46.526;24.612;2022-10-16T11:41:16;98190.75;;;18.86;49.12
75146;BME280;63641;46.526;24.612;2022-10-16T11:43:52;98192.22;;;18.92;48.87
75146;BME280;63641;46.526;24.612;2022-10-16T11:46:24;98188.84;;;18.95;48.98
75146;BME280;63641;46.526;24.612;2022-10-16T11:49:11;98179.66;;;18.99;49.07
75146;BME280;63641;46.526;24.612;2022-10-16T11:51:45;98178.09;;;19.07;48.96
75146;BME280;63641;46.526;24.612;2022-10-16T11:54:28;98178.44;;;19.14;48.61
75146;BME280;63641;46.526;24.612;2022-10-16T11:57:02;98174.44;;;19.20;48.43
75146;BME280;63641;46.526;24.612;2022-10-16T12:02:52;98179.59;;;19.22;47.85
75146;BME280;63641;46.526;24.612;2022-10-16T12:05:25;98170.91;;;19.20;47.70
75146;BME280;63641;46.526;24.612;2022-10-16T12:08:06;98171.38;;;19.22;47.80
75146;BME280;63641;46.526;24.612;2022-10-16T12:10:34;98176.22;;;19.25;47.44
75146;BME280;63641;46.526;24.612;2022-10-16T12:16:24;98174.47;;;19.29;46.99
75146;BME280;63641;46.526;24.612;2022-10-16T12:19:12;98168.69;;;19.30;47.07
75146;BME280;63641;46.526;24.612;2022-10-16T12:21:40;98167.25;;;19.33;47.06
75146;BME280;63641;46.526;24.612;2022-10-16T12:24:21;98176.47;;;19.37;47.04
75146;BME280;63641;46.526;24.612;2022-10-16T12:26:50;98179.03;;;19.42;46.36
75146;BME280;63641;46.526;24.612;2022-10-16T12:29:28;98173.06;;;19.40;46.58
75146;BME280;63641;46.526;24.612;2022-10-16T12:31:56;98182.41;;;19.39;46.49
75146;BME280;63641;46.526;24.612;2022-10-16T12:34:38;98187.91;;;19.39;46.54
75146;BME280;63641;46.526;24.612;2022-10-16T12:37:19;98179.38;;;19.41;46.57
75146;BME280;63641;46.526;24.612;2022-10-16T12:39:48;98177.91;;;19.43;46.33
75146;BME280;63641;46.526;24.612;2022-10-16T12:44:51;98185.38;;;19.51;46.20
75146;BME280;63641;46.526;24.612;2022-10-16T12:52:58;98193.47;;;19.57;45.53
75146;BME280;63641;46.526;24.612;2022-10-16T12:55:26;98195.06;;;19.58;45.54
75146;BME280;63641;46.526;24.612;2022-10-16T13:04:00;98194.59;;;19.55;44.28
75146;BME280;63641;46.526;24.612;2022-10-16T13:09:53;98197.75;;;19.40;44.19
75146;BME280;63641;46.526;24.612;2022-10-16T13:21:18;98202.78;;;19.47;44.70
75146;BME280;63641;46.526;24.612;2022-10-16T13:26:57;98194.41;;;19.52;44.34
75146;BME280;63641;46.526;24.612;2022-10-16T13:29:33;98191.69;;;19.52;44.43
75146;BME280;63641;46.526;24.612;2022-10-16T13:32:06;98213.81;;;19.55;45.03
75146;BME280;63641;46.526;24.612;2022-10-16T13:34:44;98200.25;;;19.59;45.40
75146;BME280;63641;46.526;24.612;2022-10-16T13:37:20;98195.41;;;19.56;44.64
75146;BME280;63641;46.526;24.612;2022-10-16T13:39:47;98202.50;;;19.57;44.41
75146;BME280;63641;46.526;24.612;2022-10-16T13:42:22;98201.38;;;19.58;44.45
75146;BME280;63641;46.526;24.612;2022-10-16T13:44:54;98195.69;;;19.54;44.92
75146;BME280;63641;46.526;24.612;2022-10-16T13:47:27;98198.59;;;19.49;45.08
75146;BME280;63641;46.526;24.612;2022-10-16T13:50:05;98207.63;;;19.41;45.32
75146;BME280;63641;46.526;24.612;2022-10-16T13:52:38;98200.66;;;19.35;45.97
75146;BME280;63641;46.526;24.612;2022-10-16T13:55:16;98195.50;;;19.34;45.72
75146;BME280;63641;46.526;24.612;2022-10-16T13:57:48;98205.66;;;19.33;45.61
75146;BME280;63641;46.526;24.612;2022-10-16T14:00:25;98203.53;;;19.30;45.65
75146;BME280;63641;46.526;24.612;2022-10-16T14:03:13;98197.56;;;19.28;45.84
75146;BME280;63641;46.526;24.612;2022-10-16T14:05:49;98211.91;;;19.25;45.73
75146;BME280;63641;46.526;24.612;2022-10-16T14:08:17;98205.13;;;19.22;45.85
75146;BME280;63641;46.526;24.612;2022-10-16T14:10:48;98205.06;;;19.14;46.15
75146;BME280;63641;46.526;24.612;2022-10-16T14:13:31;98208.25;;;19.07;46.08
75146;BME280;63641;46.526;24.612;2022-10-16T14:16:05;98215.84;;;19.01;46.28
75146;BME280;63641;46.526;24.612;2022-10-16T14:18:33;98211.13;;;18.93;46.52
75146;BME280;63641;46.526;24.612;2022-10-16T14:21:06;98219.47;;;18.88;46.60
75146;BME280;63641;46.526;24.612;2022-10-16T14:23:37;98212.50;;;18.82;46.95
75146;BME280;63641;46.526;24.612;2022-10-16T14:28:36;98222.59;;;18.73;47.95
75146;BME280;63641;46.526;24.612;2022-10-16T14:31:24;98221.91;;;18.67;47.66
75146;BME280;63641;46.526;24.612;2022-10-16T14:33:52;98220.38;;;18.61;47.68
75146;BME280;63641;46.526;24.612;2022-10-16T14:36:19;98227.44;;;18.53;48.04
75146;BME280;63641;46.526;24.612;2022-10-16T14:39:17;98218.31;;;18.44;48.67
75146;BME280;63641;46.526;24.612;2022-10-16T14:41:48;98227.09;;;18.32;49.55
75146;BME280;63641;46.526;24.612;2022-10-16T14:44:17;98227.84;;;18.24;50.07
75146;BME280;63641;46.526;24.612;2022-10-16T14:46:44;98230.00;;;18.14;50.70
75146;BME280;63641;46.526;24.612;2022-10-16T14:51:40;98222.13;;;17.98;51.82
75146;BME280;63641;46.526;24.612;2022-10-16T14:54:09;98226.41;;;17.91;52.14
75146;BME280;63641;46.526;24.612;2022-10-16T14:56:57;98227.75;;;17.79;52.75
75146;BME280;63641;46.526;24.612;2022-10-16T14:59:32;98224.88;;;17.71;53.52
75146;BME280;63641;46.526;24.612;2022-10-16T15:02:02;98227.19;;;17.63;53.83
75146;BME280;63641;46.526;24.612;2022-10-16T15:04:35;98229.66;;;17.51;54.11
75146;BME280;63641;46.526;24.612;2022-10-16T15:07:02;98238.56;;;17.43;54.52
75146;BME280;63641;46.526;24.612;2022-10-16T15:09:29;98233.28;;;17.33;54.87
75146;BME280;63641;46.526;24.612;2022-10-16T15:11:55;98236.53;;;17.21;55.13